EFTP/TMP METAR and TAF weather

Enter ICAO airport designator
Station Type Date Time Source
EFTP METAR 2021/04/18 02:20 UTC NOAA

EFTP 180220Z AUTO 00000KT CAVOK M02/M04 Q1031


Station Type Date Time Source
EFTP Decoded METAR 2021/04/18 02:20 UTC NOAA

Tampere / Pirkkala, Finland (EFTP) 61-25N 023-35E 112M
Apr 17, 2021 - 10:20 PM EDT / 2021.04.18 0220 UTC
Wind: Calm:0
Visibility: greater than 7 mile(s):0
Temperature: 28 F (-2 C)
Dew Point: 24 F (-4 C)
Relative Humidity: 86%
Pressure (altimeter): 30.45 in. Hg (1031 hPa)
ob: EFTP 180220Z AUTO 00000KT CAVOK M02/M04 Q1031
cycle: 2

Station Type Date Time Source
EFTP TAF 2021/04/18 03:42 UTC NOAA

TAF EFTP 180229Z 1803/1903 VRB01KT CAVOK

Example: see airport list